Terminal Aerodrome Forecast
Issued by NWS

Home | Current Version | Previous Version | Text Only | Print | Product List | Glossary On
Versions: 1 2 3 4 5 6 7 8 9 10 11 12 13 14
425
FTUS44 KLZK 202331
TAFLIT
TAF
KLIT 202331Z 2100/2124 16005KT P6SM FEW050 SCT250
     FM210200 VRB05KT P6SM SCT250
     FM211500 18007KT P6SM FEW050 SCT250=

USA.gov is the U.S. government's official web portal to all federal, state and local government web resources and services.